Time;durP1;ratioP1;P1;durP2;ratioP2;P2;SDS_P1;SDS_P2;PMS_P1;PMS_P2;Temp;Humidity;BMP_temperature;BMP_pressure;BME280_temperature;BME280_humidity;BME280_pressure;Samples;Min_cycle;Max_cycle;Signal;HPM_P1;HPM_P2
2022/09/21 00:02:08;;;;;;;2.63;2.43;;;;;;;14.81;61.12;99458.88;5112078;28;20194;-54
2022/09/21 00:04:35;;;;;;;2.60;2.40;;;;;;;14.84;61.01;99463.97;5111906;28;20639;-53
2022/09/21 00:07:02;;;;;;;2.30;2.20;;;;;;;14.86;60.45;99462.16;5111588;28;20194;-54
2022/09/21 00:09:30;;;;;;;2.17;2.07;;;;;;;14.87;60.79;99463.84;5111832;28;20230;-56
2022/09/21 00:11:57;;;;;;;3.43;2.40;;;;;;;14.80;60.31;99451.97;5112303;28;20741;-54
2022/09/21 00:14:24;;;;;;;2.20;2.10;;;;;;;14.76;60.68;99460.88;5111872;28;20568;-53
2022/09/21 00:16:51;;;;;;;2.30;2.20;;;;;;;14.67;60.60;99463.91;5110840;27;20680;-57
2022/09/21 00:19:18;;;;;;;2.73;2.27;;;;;;;14.64;61.00;99468.44;5111114;28;20222;-58
2022/09/21 00:21:45;;;;;;;2.20;2.10;;;;;;;14.60;60.94;99459.03;5111249;28;20277;-58
2022/09/21 00:24:12;;;;;;;2.17;2.07;;;;;;;14.69;61.06;99463.84;5111544;28;20198;-58
2022/09/21 00:26:40;;;;;;;2.37;2.20;;;;;;;14.69;61.11;99466.44;5111635;28;20233;-53
2022/09/21 00:29:07;;;;;;;2.27;2.17;;;;;;;14.70;60.85;99471.59;5111487;28;20201;-53
2022/09/21 00:31:34;;;;;;;2.30;2.20;;;;;;;14.71;61.12;99472.47;5111335;28;20209;-52
2022/09/21 00:34:02;;;;;;;2.20;2.10;;;;;;;14.66;61.37;99475.31;5111007;28;20238;-52
2022/09/21 00:36:30;;;;;;;2.53;2.37;;;;;;;14.74;61.04;99472.31;5111660;28;20203;-53
2022/09/21 00:38:59;;;;;;;2.60;2.40;;;;;;;14.72;61.13;99468.94;5111318;28;20285;-57
2022/09/21 00:41:28;;;;;;;2.27;2.10;;;;;;;14.78;60.79;99468.66;5111022;28;20199;-58
2022/09/21 00:44:25;;;;;;;2.20;2.00;;;;;;;14.81;60.72;99473.72;5111184;28;20575;-58
2022/09/21 00:46:54;;;;;;;2.70;2.50;;;;;;;14.83;60.13;99471.88;5111328;27;20725;-51
2022/09/21 00:49:22;;;;;;;2.40;2.30;;;;;;;14.72;60.92;99463.69;5111139;28;20190;-53
2022/09/21 00:51:51;;;;;;;2.30;2.20;;;;;;;14.67;61.24;99455.25;5111155;28;20202;-53
2022/09/21 00:54:24;;;;;;;2.40;2.30;;;;;;;14.61;61.12;99455.50;5111010;28;20198;-53
2022/09/21 00:56:51;;;;;;;2.23;2.13;;;;;;;14.55;61.57;99461.88;5110788;28;20226;-53
2022/09/21 00:59:19;;;;;;;2.40;2.30;;;;;;;14.59;61.24;99463.41;5110868;28;20194;-52
2022/09/21 01:01:48;;;;;;;2.33;2.23;;;;;;;14.60;60.72;99470.34;5110773;28;20190;-52
2022/09/21 01:04:17;;;;;;;2.50;2.40;;;;;;;14.56;60.13;99453.09;5110951;28;20198;-54
2022/09/21 01:06:46;;;;;;;2.30;2.20;;;;;;;14.63;60.43;99464.13;5110849;28;20594;-53
2022/09/21 01:09:15;;;;;;;1.90;1.80;;;;;;;14.64;60.38;99471.06;5110629;28;20198;-58
2022/09/21 01:11:54;;;;;;;2.00;1.90;;;;;;;14.57;60.72;99464.41;5110977;28;20228;-61
2022/09/21 01:14:38;;;;;;;2.03;1.93;;;;;;;14.58;60.60;99458.25;5110942;28;20202;-57
2022/09/21 01:17:15;;;;;;;2.30;2.20;;;;;;;14.49;60.85;99454.31;5110700;28;20190;-58
2022/09/21 01:20:20;;;;;;;2.30;2.10;;;;;;;14.42;60.92;99445.06;5110229;28;20226;-53
2022/09/21 01:23:02;;;;;;;2.20;2.10;;;;;;;14.53;60.45;99451.50;5088132;28;20710;-52
2022/09/21 01:25:38;;;;;;;2.13;1.93;;;;;;;14.55;60.64;99451.44;5110548;28;20222;-58
2022/09/21 01:28:22;;;;;;;3.27;2.60;;;;;;;14.53;61.44;99442.81;5110348;28;20194;-52
2022/09/21 01:30:53;;;;;;;2.90;2.43;;;;;;;14.48;60.97;99435.19;5110483;28;20196;-54
2022/09/21 01:33:26;;;;;;;2.40;2.20;;;;;;;14.50;60.88;99441.19;5109536;28;20245;-53
2022/09/21 01:35:58;;;;;;;2.27;2.13;;;;;;;14.50;61.03;99437.72;5110090;28;20198;-57
2022/09/21 01:38:28;;;;;;;2.20;2.10;;;;;;;14.45;61.43;99435.31;5110729;28;20273;-57
2022/09/21 01:41:00;;;;;;;2.40;2.13;;;;;;;14.47;61.08;99430.88;5110097;28;20228;-53
2022/09/21 01:43:32;;;;;;;2.40;2.20;;;;;;;14.47;61.21;99428.25;5110142;28;20198;-57
2022/09/21 01:46:02;;;;;;;2.60;2.50;;;;;;;14.41;61.23;99423.34;5110366;28;20362;-54
2022/09/21 01:48:34;;;;;;;2.43;2.23;;;;;;;14.40;62.15;99421.63;5110092;28;20194;-53
2022/09/21 01:51:06;;;;;;;2.63;2.53;;;;;;;14.40;62.22;99420.78;5109915;28;20198;-58
2022/09/21 01:53:37;;;;;;;2.70;2.50;;;;;;;14.37;62.36;99426.09;5110779;28;20294;-58
2022/09/21 01:56:10;;;;;;;2.50;2.40;;;;;;;14.38;62.11;99431.25;5110766;27;20195;-59
2022/09/21 01:58:42;;;;;;;2.40;2.30;;;;;;;14.35;62.00;99431.41;5110864;28;20194;-59
2022/09/21 02:01:16;;;;;;;2.70;2.30;;;;;;;14.35;61.95;99420.09;5113074;28;20214;-58
2022/09/21 02:03:47;;;;;;;2.27;2.17;;;;;;;14.33;62.28;99435.03;5110288;28;20198;-57
2022/09/21 02:06:16;;;;;;;5.10;2.43;;;;;;;14.33;62.82;99430.66;5110213;28;20203;-58
2022/09/21 02:08:43;;;;;;;2.73;2.20;;;;;;;14.31;62.79;99426.41;5109797;28;20230;-52
2022/09/21 02:11:11;;;;;;;2.40;2.30;;;;;;;14.30;63.30;99425.56;5109777;28;20190;-53
2022/09/21 02:13:42;;;;;;;2.60;2.40;;;;;;;14.26;63.00;99429.22;5109852;28;20194;-58
2022/09/21 02:16:24;;;;;;;2.50;2.40;;;;;;;14.27;63.56;99422.22;5109906;28;20190;-58
2022/09/21 02:18:56;;;;;;;2.83;2.50;;;;;;;14.28;63.74;99429.16;5110187;28;20201;-58
2022/09/21 02:21:30;;;;;;;2.60;2.50;;;;;;;14.32;63.08;99428.94;5109681;28;20222;-52
2022/09/21 02:24:08;;;;;;;2.80;2.60;;;;;;;14.30;63.29;99433.38;5109912;28;20657;-57
2022/09/21 02:26:43;;;;;;;2.80;2.60;;;;;;;14.33;63.22;99432.41;5109939;28;20820;-57
2022/09/21 02:29:17;;;;;;;2.87;2.67;;;;;;;14.34;63.25;99434.06;5109770;28;20208;-58
2022/09/21 02:31:52;;;;;;;2.50;2.30;;;;;;;14.36;62.84;99434.84;5109463;28;20193;-57
2022/09/21 02:34:26;;;;;;;2.80;2.27;;;;;;;14.43;62.65;99441.53;5109585;28;20249;-57
2022/09/21 02:37:00;;;;;;;3.03;2.73;;;;;;;14.48;62.56;99435.19;5109849;28;20285;-58
2022/09/21 02:39:34;;;;;;;6.60;2.50;;;;;;;14.43;62.43;99433.72;5109896;28;20210;-57
2022/09/21 02:42:06;;;;;;;2.90;2.70;;;;;;;14.44;62.51;99433.66;5109527;28;20194;-59
2022/09/21 02:44:39;;;;;;;2.70;2.60;;;;;;;14.37;62.51;99434.78;5112550;28;20230;-58
2022/09/21 02:47:13;;;;;;;3.57;2.73;;;;;;;14.34;62.84;99441.91;5113559;28;20624;-53
2022/09/21 02:49:45;;;;;;;3.10;2.90;;;;;;;14.38;62.37;99435.63;5113461;28;20198;-53
2022/09/21 02:52:17;;;;;;;2.70;2.50;;;;;;;14.33;62.69;99435.03;5114026;28;20637;-53
2022/09/21 02:54:47;;;;;;;2.70;2.50;;;;;;;14.37;62.78;99444.38;5113478;28;20666;-53
2022/09/21 02:57:16;;;;;;;2.57;2.40;;;;;;;14.37;63.18;99441.78;5113399;28;20198;-54
2022/09/21 02:59:43;;;;;;;2.60;2.40;;;;;;;14.33;63.63;99441.09;5113195;28;20205;-54
2022/09/21 03:02:12;;;;;;;2.60;2.40;;;;;;;14.31;63.92;99442.91;5113230;28;20195;-53
2022/09/21 03:04:40;;;;;;;2.87;2.73;;;;;;;14.27;64.08;99441.34;5113263;28;20190;-53
2022/09/21 03:07:07;;;;;;;2.50;2.30;;;;;;;14.29;64.50;99438.69;5113392;28;20750;-53
2022/09/21 03:09:34;;;;;;;2.57;2.47;;;;;;;14.27;64.70;99446.56;5112972;28;20199;-53
2022/09/21 03:12:02;;;;;;;2.33;2.23;;;;;;;14.29;64.62;99449.97;5113115;28;20213;-53
2022/09/21 03:14:30;;;;;;;3.80;2.37;;;;;;;14.36;64.17;99446.16;5112899;28;20692;-53
2022/09/21 03:16:57;;;;;;;2.60;2.50;;;;;;;14.33;65.06;99453.31;5112808;28;20252;-53
2022/09/21 03:19:25;;;;;;;2.37;2.27;;;;;;;14.26;65.46;99444.88;5109098;28;20218;-57
2022/09/21 03:21:53;;;;;;;2.27;2.17;;;;;;;14.23;65.91;99445.00;5091523;28;20609;-59
2022/09/21 03:24:44;;;;;;;2.60;2.50;;;;;;;14.21;66.23;99448.63;5109580;28;20586;-57
2022/09/21 03:27:08;;;;;;;2.57;2.37;;;;;;;14.21;66.52;99446.00;5111924;28;20743;-53
2022/09/21 03:29:35;;;;;;;2.43;2.33;;;;;;;14.25;66.81;99448.41;5112060;28;20230;-53
2022/09/21 03:32:02;;;;;;;2.90;2.70;;;;;;;14.22;66.93;99453.75;5112432;28;20872;-53
2022/09/21 03:34:33;;;;;;;2.60;2.50;;;;;;;14.14;67.09;99450.63;5112252;28;20725;-53
2022/09/21 03:37:00;;;;;;;4.20;2.50;;;;;;;14.13;66.89;99441.13;5111308;28;20711;-53
2022/09/21 03:39:27;;;;;;;2.57;2.37;;;;;;;14.25;67.04;99466.66;5111845;28;20221;-53
2022/09/21 03:41:55;;;;;;;2.80;2.70;;;;;;;14.18;67.56;99457.44;5111900;28;20702;-52
2022/09/21 03:44:22;;;;;;;3.10;2.90;;;;;;;14.18;68.22;99457.44;5111644;28;20249;-53
2022/09/21 03:46:49;;;;;;;2.90;2.67;;;;;;;14.08;68.07;99450.94;5110725;28;20615;-53
2022/09/21 03:49:16;;;;;;;2.80;2.57;;;;;;;14.05;68.39;99454.50;5110344;27;20655;-53
2022/09/21 03:51:44;;;;;;;3.40;2.80;;;;;;;14.13;68.40;99464.59;5110170;28;20206;-53
2022/09/21 03:54:12;;;;;;;3.10;2.90;;;;;;;14.16;68.35;99456.66;5108969;28;20600;-52
2022/09/21 03:56:39;;;;;;;2.70;2.60;;;;;;;14.10;68.37;99464.75;5103881;28;20228;-52
2022/09/21 03:59:06;;;;;;;3.37;3.17;;;;;;;14.05;69.15;99457.13;5104983;27;20218;-53
2022/09/21 04:01:33;;;;;;;2.93;2.80;;;;;;;14.01;69.14;99446.88;5104407;28;20218;-53
2022/09/21 04:04:00;;;;;;;4.07;3.60;;;;;;;14.04;69.28;99463.25;5106946;27;20318;-53
2022/09/21 04:06:27;;;;;;;3.03;2.77;;;;;;;13.93;69.59;99443.75;5109903;28;20625;-53
2022/09/21 04:08:55;;;;;;;3.53;3.13;;;;;;;14.03;69.54;99463.31;5109913;28;20620;-57
2022/09/21 04:11:23;;;;;;;3.13;2.93;;;;;;;14.05;69.69;99464.09;5107700;28;20214;-57
2022/09/21 04:13:55;;;;;;;3.90;3.57;;;;;;;13.97;70.58;99464.44;5109353;27;20219;-57
2022/09/21 04:16:24;;;;;;;6.37;3.43;;;;;;;14.01;70.59;99465.13;5110041;28;20297;-52
2022/09/21 04:18:51;;;;;;;3.37;3.17;;;;;;;14.04;70.72;99467.63;5112239;27;20276;-53
2022/09/21 04:21:18;;;;;;;4.23;3.27;;;;;;;14.00;70.51;99468.66;5131263;27;20317;-53
2022/09/21 04:23:45;;;;;;;3.10;2.90;;;;;;;14.06;70.41;99468.41;5120666;27;20195;-58
2022/09/21 04:26:24;;;;;;;6.73;3.60;;;;;;;14.02;70.50;99472.91;5110873;28;20203;-59
2022/09/21 04:28:52;;;;;;;3.90;2.83;;;;;;;14.10;69.66;99465.59;5110454;28;20209;-58
2022/09/21 04:31:20;;;;;;;7.50;4.27;;;;;;;14.10;69.92;99472.59;5110574;28;20692;-59
2022/09/21 04:33:49;;;;;;;3.57;3.27;;;;;;;14.13;70.27;99475.03;5111268;28;20233;-59
2022/09/21 04:36:16;;;;;;;3.23;3.00;;;;;;;14.17;69.53;99474.00;5111133;28;20194;-55
2022/09/21 04:38:43;;;;;;;4.03;3.20;;;;;;;14.11;70.36;99479.47;5110540;28;20201;-56
2022/09/21 04:41:10;;;;;;;3.00;2.80;;;;;;;14.15;70.36;99475.81;5111058;28;20214;-56
2022/09/21 04:43:42;;;;;;;4.03;3.73;;;;;;;14.13;71.27;99480.25;5110035;28;20205;-54
2022/09/21 04:46:11;;;;;;;4.70;3.20;;;;;;;14.19;70.69;99474.78;5111087;28;20201;-55
2022/09/21 04:48:39;;;;;;;10.07;3.43;;;;;;;14.18;71.15;99479.16;5110667;27;20199;-51
2022/09/21 04:51:07;;;;;;;4.53;3.37;;;;;;;14.23;71.26;99478.09;5110254;28;20598;-51
2022/09/21 04:53:34;;;;;;;4.20;3.20;;;;;;;14.29;70.60;99475.22;5111019;28;20202;-55
2022/09/21 04:56:02;;;;;;;4.07;3.67;;;;;;;14.31;70.46;99473.41;5111208;28;20190;-52
2022/09/21 04:58:29;;;;;;;3.47;3.13;;;;;;;14.37;70.05;99479.19;5110850;28;20195;-51
2022/09/21 05:00:57;;;;;;;3.50;3.20;;;;;;;14.41;69.83;99475.56;5110900;28;20629;-51
2022/09/21 05:03:26;;;;;;;4.83;4.47;;;;;;;14.39;69.55;99469.56;5110781;28;20230;-55
2022/09/21 05:05:54;;;;;;;4.97;4.53;;;;;;;14.49;68.99;99472.59;5110546;28;20674;-54
2022/09/21 05:10:01;;;;;;;3.43;3.23;;;;;;;14.53;68.92;99480.22;5111070;28;20213;-55
2022/09/21 05:11:11;;;;;;;4.60;2.97;;;;;;;14.68;68.31;99477.81;5110551;28;20264;-55
2022/09/21 05:13:39;;;;;;;3.47;3.10;;;;;;;14.75;67.75;99480.09;5110765;28;20206;-56
2022/09/21 05:16:07;;;;;;;4.30;4.00;;;;;;;14.87;66.94;99489.13;5110755;28;20194;-54
2022/09/21 05:18:34;;;;;;;4.17;3.77;;;;;;;14.99;66.90;99478.09;5110571;28;20190;-55
2022/09/21 05:21:03;;;;;;;3.43;3.13;;;;;;;15.24;65.97;99483.81;5110268;28;20303;-51
2022/09/21 05:23:31;;;;;;;4.90;2.70;;;;;;;15.39;65.46;99479.63;5110457;28;20190;-51
2022/09/21 05:25:59;;;;;;;4.07;2.50;;;;;;;15.81;63.63;99473.19;5100669;27;20215;-52
2022/09/21 05:28:27;;;;;;;4.50;2.70;;;;;;;16.53;61.12;99476.38;5089226;28;20766;-51
2022/09/21 05:31:01;;;;;;;2.77;2.50;;;;;;;17.22;58.31;99481.31;5089307;28;20226;-57
2022/09/21 05:33:30;;;;;;;5.60;2.50;;;;;;;17.83;55.95;99450.72;5089401;28;20231;-51
2022/09/21 05:36:06;;;;;;;5.40;3.10;;;;;;;18.81;53.11;99480.59;5089191;28;20223;-52
2022/09/21 05:38:33;;;;;;;3.17;2.87;;;;;;;19.01;51.92;99476.69;5089508;28;20222;-52
2022/09/21 05:41:01;;;;;;;3.87;3.50;;;;;;;18.92;51.59;99480.75;5089038;28;20233;-52
2022/09/21 05:43:29;;;;;;;3.30;3.10;;;;;;;18.83;52.13;99482.19;5089338;28;20230;-52
2022/09/21 05:46:03;;;;;;;4.30;2.87;;;;;;;18.76;52.34;99486.13;5089064;28;20221;-52
2022/09/21 05:48:38;;;;;;;18.02;3.60;;;;;;;19.00;51.29;99481.09;5093728;28;20275;-52
2022/09/21 05:51:11;;;;;;;11.10;2.70;;;;;;;19.32;50.64;99488.72;5109314;28;20210;-52
2022/09/21 05:53:48;;;;;;;3.83;3.15;;;;;;;19.09;50.82;99488.41;5122684;27;20226;-55
2022/09/21 05:56:35;;;;;;;6.75;3.00;;;;;;;18.78;51.93;99486.03;5130282;27;20195;-55
2022/09/21 05:59:19;;;;;;;11.57;3.63;;;;;;;18.54;52.75;99491.00;5129912;27;20764;-53
2022/09/21 06:01:57;;;;;;;7.70;4.68;;;;;;;18.49;52.82;99487.84;5130382;27;20226;-52
2022/09/21 06:04:26;;;;;;;8.35;3.60;;;;;;;18.36;53.44;99484.25;5130588;27;20200;-52
2022/09/21 06:06:53;;;;;;;7.72;3.30;;;;;;;18.23;54.06;99488.56;5130364;27;20198;-52
2022/09/21 06:09:20;;;;;;;8.35;3.45;;;;;;;18.35;53.91;99493.09;5130508;27;20194;-52
2022/09/21 06:11:47;;;;;;;6.32;3.80;;;;;;;18.32;53.66;99493.25;5130408;27;20201;-53
2022/09/21 06:14:14;;;;;;;4.75;3.55;;;;;;;18.47;53.53;99492.34;5130440;27;20194;-53
2022/09/21 06:16:42;;;;;;;9.18;4.00;;;;;;;18.86;52.76;99489.88;5130323;27;20197;-51
2022/09/21 06:19:11;;;;;;;7.00;4.20;;;;;;;18.99;51.99;99499.63;5133373;27;20186;-52
2022/09/21 06:21:40;;;;;;;10.77;3.63;;;;;;;18.76;52.15;99494.03;5120330;27;20218;-55
2022/09/21 06:24:07;;;;;;;9.52;4.63;;;;;;;18.59;52.72;99488.97;5112760;28;20202;-52
2022/09/21 06:26:34;;;;;;;12.02;4.13;;;;;;;18.54;52.81;99496.25;5112434;27;20187;-51
2022/09/21 06:29:01;;;;;;;5.00;4.00;;;;;;;18.67;52.37;99502.50;5113065;28;20194;-53
2022/09/21 06:31:28;;;;;;;7.20;4.72;;;;;;;18.79;52.02;99499.09;5113919;28;20186;-52
2022/09/21 06:33:55;;;;;;;5.03;3.50;;;;;;;18.78;51.28;99493.94;5113754;28;20717;-53
2022/09/21 06:36:22;;;;;;;6.43;3.78;;;;;;;18.51;51.60;99493.81;5113878;28;20198;-53
2022/09/21 06:38:51;;;;;;;6.43;3.80;;;;;;;18.28;52.43;99486.53;5113696;28;20194;-52
2022/09/21 06:41:18;;;;;;;6.03;3.27;;;;;;;18.61;51.96;99500.25;5113698;28;20229;-52
2022/09/21 06:43:45;;;;;;;5.57;3.67;;;;;;;19.11;50.33;99494.41;5113588;28;20671;-52
2022/09/21 06:46:12;;;;;;;6.63;3.92;;;;;;;19.42;49.36;99501.16;5113517;28;20198;-52
2022/09/21 06:48:39;;;;;;;3.07;2.80;;;;;;;19.82;48.58;99501.22;5112488;28;20195;-51
2022/09/21 06:51:06;;;;;;;12.45;4.45;;;;;;;20.05;47.85;99504.94;5112615;28;20194;-56
2022/09/21 06:53:34;;;;;;;7.88;4.97;;;;;;;20.61;46.93;99506.31;5112757;28;20198;-53
2022/09/21 06:56:04;;;;;;;11.02;5.68;;;;;;;21.00;45.79;99514.03;5113441;28;20314;-52
2022/09/21 06:58:33;;;;;;;4.22;3.47;;;;;;;22.14;43.66;99511.81;5113378;28;20198;-52
2022/09/21 07:01:06;;;;;;;4.60;3.05;;;;;;;22.72;41.99;99516.94;5112692;28;20195;-52
2022/09/21 07:03:33;;;;;;;6.32;3.13;;;;;;;23.34;40.48;99508.44;5112862;28;20201;-56
2022/09/21 07:06:00;;;;;;;5.03;2.80;;;;;;;23.23;40.25;99516.44;5113029;28;20646;-55
2022/09/21 07:08:27;;;;;;;6.43;3.45;;;;;;;23.38;40.42;99517.81;5113224;28;20234;-56
2022/09/21 07:10:58;;;;;;;7.25;3.97;;;;;;;23.98;39.04;99518.19;5109234;28;20859;-56
2022/09/21 07:13:27;;;;;;;2.80;2.60;;;;;;;24.36;37.33;99505.22;5091919;28;20786;-55
2022/09/21 07:15:54;;;;;;;2.90;2.63;;;;;;;24.36;37.64;99526.44;5091599;28;20221;-55
2022/09/21 07:18:21;;;;;;;3.13;2.83;;;;;;;24.51;37.39;99518.97;5103871;28;21087;-56
2022/09/21 07:20:48;;;;;;;3.30;2.42;;;;;;;25.52;35.42;99505.56;5110934;28;20214;-55
2022/09/21 07:23:18;;;;;;;3.28;3.00;;;;;;;25.45;35.29;99515.91;5110904;28;20604;-56
2022/09/21 07:25:48;;;;;;;7.85;5.07;;;;;;;24.76;36.75;99512.38;5125032;27;20226;-52
2022/09/21 07:28:15;;;;;;;5.90;3.28;;;;;;;23.43;38.27;99485.66;5131920;27;20201;-54
2022/09/21 07:30:43;;;;;;;7.20;3.60;;;;;;;23.75;38.48;99520.97;5131339;27;20198;-52
2022/09/21 07:33:11;;;;;;;3.42;2.85;;;;;;;24.17;37.43;99513.00;5133311;27;20302;-52
2022/09/21 07:35:38;;;;;;;5.55;3.72;;;;;;;24.20;36.78;99510.94;5133161;27;20193;-55
2022/09/21 07:38:06;;;;;;;3.70;3.28;;;;;;;24.59;36.47;99519.16;5111935;27;20198;-56
2022/09/21 07:40:34;;;;;;;5.93;2.60;;;;;;;25.42;35.22;99520.66;5105169;28;20237;-53
2022/09/21 07:43:02;;;;;;;3.80;2.53;;;;;;;26.67;33.03;99499.25;5110291;28;20261;-54
2022/09/21 07:45:29;;;;;;;6.50;2.20;;;;;;;26.63;33.00;99520.00;5110465;27;20225;-56
2022/09/21 07:48:02;;;;;;;4.30;2.42;;;;;;;27.59;31.81;99521.31;5110880;28;20229;-55
2022/09/21 07:50:29;;;;;;;2.30;2.10;;;;;;;27.93;30.92;99515.28;5111737;28;20233;-53
2022/09/21 07:52:56;;;;;;;2.95;2.00;;;;;;;26.44;32.62;99509.41;5111714;28;20652;-54
2022/09/21 07:55:23;;;;;;;6.40;4.05;;;;;;;24.96;34.91;99514.13;5111759;28;20624;-56
2022/09/21 08:00:36;;;;;;;6.68;2.50;;;;;;;23.25;36.91;99505.72;5108637;27;20233;-55
2022/09/21 08:03:05;;;;;;;2.10;2.00;;;;;;;22.25;38.29;99482.75;5110748;28;20222;-55
2022/09/21 08:05:32;;;;;;;2.95;2.45;;;;;;;21.76;39.08;99490.94;5111585;27;20253;-57
2022/09/21 08:07:59;;;;;;;2.70;2.50;;;;;;;21.60;39.97;99485.94;5111334;28;20215;-55
2022/09/21 08:10:27;;;;;;;3.60;2.33;;;;;;;21.34;40.10;99479.94;5111247;27;20314;-58
2022/09/21 08:12:54;;;;;;;2.45;2.03;;;;;;;21.39;40.54;99456.69;5111535;28;20279;-56
2022/09/21 08:15:21;;;;;;;5.00;2.33;;;;;;;21.31;40.68;99473.13;5111570;28;20211;-55
2022/09/21 08:17:50;;;;;;;5.43;1.95;;;;;;;21.44;39.68;99474.84;5107436;27;20633;-56
2022/09/21 08:20:19;;;;;;;1.60;1.50;;;;;;;21.53;39.55;99480.28;5109591;28;20218;-56
2022/09/21 08:22:46;;;;;;;1.80;1.70;;;;;;;21.70;39.47;99471.94;5108310;27;20722;-56
2022/09/21 08:25:13;;;;;;;2.42;1.83;;;;;;;21.62;39.53;99471.69;5108694;28;20222;-56
2022/09/21 08:27:41;;;;;;;2.55;1.50;;;;;;;21.44;39.59;99470.41;5108815;28;20218;-56
2022/09/21 08:30:12;;;;;;;1.77;1.67;;;;;;;21.48;39.21;99463.94;5109818;28;20237;-56
2022/09/21 08:32:40;;;;;;;5.50;1.50;;;;;;;21.44;39.11;99466.94;5108688;28;20724;-52
2022/09/21 08:35:08;;;;;;;4.70;2.53;;;;;;;21.45;39.47;99450.94;5109792;28;20665;-52
2022/09/21 08:37:37;;;;;;;3.22;3.00;;;;;;;21.37;39.46;99463.88;5110514;28;20732;-53
2022/09/21 08:40:06;;;;;;;4.18;3.80;;;;;;;21.45;39.30;99458.88;5111032;28;20223;-52
2022/09/21 08:42:46;;;;;;;3.88;1.52;;;;;;;21.27;39.00;99452.31;5110217;28;20625;-53
2022/09/21 08:45:15;;;;;;;1.67;1.58;;;;;;;21.35;39.20;99452.59;5110696;28;20217;-52
2022/09/21 08:47:45;;;;;;;2.05;1.95;;;;;;;21.39;39.80;99446.13;5110401;28;20226;-52
2022/09/21 08:50:32;;;;;;;1.77;1.67;;;;;;;21.22;39.38;99450.00;5110958;28;20287;-52
2022/09/21 08:53:07;;;;;;;3.33;1.45;;;;;;;21.20;39.61;99440.53;5110519;28;20222;-52
2022/09/21 08:55:34;;;;;;;2.25;2.15;;;;;;;21.18;39.79;99447.69;5111091;28;20226;-53
2022/09/21 08:58:01;;;;;;;3.20;2.00;;;;;;;21.12;39.73;99430.50;5110140;27;20219;-54
2022/09/21 09:00:32;;;;;;;1.55;1.45;;;;;;;21.01;39.69;99441.84;5110480;28;20215;-53
2022/09/21 09:03:35;;;;;;;1.50;1.42;;;;;;;21.12;39.46;99430.50;5110071;27;20318;-53
2022/09/21 09:06:07;;;;;;;2.08;1.40;;;;;;;21.15;39.35;99432.06;5110179;28;20238;-56
2022/09/21 09:09:05;;;;;;;2.65;1.73;;;;;;;21.08;39.53;99425.56;5109921;28;20745;-56
2022/09/21 09:11:52;;;;;;;3.70;1.50;;;;;;;21.40;39.08;99426.69;5104827;28;20792;-53
2022/09/21 09:14:38;;;;;;;1.85;1.73;;;;;;;21.38;37.98;99418.03;5107564;28;20233;-53
2022/09/21 09:17:27;;;;;;;1.33;1.33;;;;;;;21.32;37.85;99411.44;5107686;28;20218;-53
2022/09/21 09:20:00;;;;;;;1.65;1.48;;;;;;;21.56;37.73;99421.09;5108169;28;20219;-52
2022/09/21 09:22:31;;;;;;;1.35;1.25;;;;;;;21.75;37.66;99405.56;5106457;27;20233;-53
2022/09/21 09:25:04;;;;;;;1.15;1.15;;;;;;;21.73;38.03;99416.22;5106973;28;20709;-53
2022/09/21 09:27:36;;;;;;;4.40;1.92;;;;;;;21.65;38.30;99402.78;5098248;28;20220;-53
2022/09/21 09:30:06;;;;;;;3.28;1.85;;;;;;;21.81;38.24;99409.50;5107867;28;20558;-52
2022/09/21 09:32:42;;;;;;;3.30;1.63;;;;;;;21.95;37.61;99407.50;5127157;27;20212;-53
2022/09/21 09:35:21;;;;;;;2.03;1.58;;;;;;;21.92;36.82;99407.72;5113351;27;20616;-53
2022/09/21 09:37:50;;;;;;;1.88;1.52;;;;;;;21.78;36.63;99415.03;5097436;28;20290;-55
2022/09/21 09:40:27;;;;;;;1.10;1.00;;;;;;;21.80;36.58;99413.09;5109666;28;20775;-55
2022/09/21 09:43:05;;;;;;;2.47;1.25;;;;;;;21.90;36.06;99407.00;5110100;28;20305;-56
2022/09/21 09:45:48;;;;;;;3.25;1.33;;;;;;;22.01;36.42;99396.47;5109986;28;20198;-56
2022/09/21 09:48:31;;;;;;;1.90;1.10;;;;;;;22.20;36.51;99395.88;5109846;28;20194;-56
2022/09/21 09:50:58;;;;;;;1.55;1.45;;;;;;;22.11;36.62;99401.06;5110287;28;20738;-56
2022/09/21 09:53:26;;;;;;;1.35;1.23;;;;;;;22.18;36.51;99392.53;5109046;28;20194;-55
2022/09/21 09:55:57;;;;;;;1.33;1.30;;;;;;;22.14;36.59;99393.72;5109895;28;20202;-55
2022/09/21 09:58:31;;;;;;;2.90;1.27;;;;;;;22.12;36.92;99389.53;5109864;28;20573;-55
2022/09/21 10:00:59;;;;;;;1.30;1.20;;;;;;;22.34;36.60;99402.75;5108371;28;20194;-55
2022/09/21 10:03:27;;;;;;;1.20;1.20;;;;;;;22.46;36.18;99386.72;5108059;28;20218;-55
2022/09/21 10:05:55;;;;;;;1.30;1.20;;;;;;;22.79;36.25;99387.66;5108030;28;20189;-55
2022/09/21 10:08:31;;;;;;;2.25;1.50;;;;;;;22.66;35.88;99376.38;5107523;28;20217;-55
2022/09/21 10:10:59;;;;;;;1.70;1.60;;;;;;;22.53;36.37;99367.72;5106816;28;20198;-51
2022/09/21 10:13:30;;;;;;;1.20;1.20;;;;;;;22.72;36.44;99370.56;5106460;28;20193;-52
2022/09/21 10:15:59;;;;;;;1.30;1.20;;;;;;;22.66;36.53;99377.19;5107956;28;20201;-54
2022/09/21 10:18:38;;;;;;;1.30;1.20;;;;;;;22.53;36.21;99368.56;5109847;28;20205;-56
2022/09/21 10:21:09;;;;;;;2.92;1.10;;;;;;;22.79;36.33;99367.34;5109421;28;20194;-56
2022/09/21 10:23:37;;;;;;;1.42;1.10;;;;;;;23.08;35.74;99366.75;5109536;28;20218;-57
2022/09/21 10:26:09;;;;;;;5.95;1.20;;;;;;;23.14;35.39;99367.06;5108272;28;20199;-56
2022/09/21 10:28:37;;;;;;;2.45;1.00;;;;;;;23.06;35.24;99358.91;5109236;28;20201;-53
2022/09/21 10:31:20;;;;;;;0.90;0.90;;;;;;;23.10;34.49;99360.38;5107573;28;20248;-53
2022/09/21 10:33:50;;;;;;;1.38;1.27;;;;;;;22.75;34.59;99365.03;5104739;28;20657;-53
2022/09/21 10:36:32;;;;;;;1.20;1.20;;;;;;;22.69;34.74;99365.50;5107277;28;20195;-53
2022/09/21 10:39:20;;;;;;;1.27;1.17;;;;;;;22.83;34.13;99365.25;5105720;28;20214;-53
2022/09/21 10:42:04;;;;;;;1.27;1.17;;;;;;;22.75;34.42;99363.25;5105105;28;20202;-52
2022/09/21 10:44:40;;;;;;;1.15;1.05;;;;;;;22.75;34.50;99365.03;5105522;28;20194;-52
2022/09/21 10:47:20;;;;;;;2.67;1.00;;;;;;;22.85;34.37;99351.91;5104759;28;20201;-53
2022/09/21 10:49:50;;;;;;;1.85;1.08;;;;;;;22.98;34.01;99356.06;5104898;28;20566;-52
2022/09/21 10:52:20;;;;;;;2.03;1.05;;;;;;;22.92;33.75;99350.44;5108663;28;20666;-53
2022/09/21 10:54:51;;;;;;;1.15;1.08;;;;;;;22.74;34.10;99352.75;5108553;28;20540;-56
2022/09/21 10:57:22;;;;;;;0.85;0.85;;;;;;;22.82;34.01;99358.28;5108722;28;20526;-55
2022/09/21 10:59:48;;;;;;;1.77;0.90;;;;;;;22.70;34.20;99346.03;5109128;28;20300;-55
2022/09/21 11:02:29;;;;;;;3.03;1.00;;;;;;;22.64;34.57;99347.38;5109112;28;20209;-55
2022/09/21 11:05:00;;;;;;;0.90;0.90;;;;;;;22.32;35.40;99335.91;5111122;28;20195;-56
2022/09/21 11:07:31;;;;;;;2.25;1.00;;;;;;;22.31;35.51;99335.06;5112619;28;20750;-56
2022/09/21 11:10:03;;;;;;;1.38;1.27;;;;;;;22.30;35.70;99336.03;5113133;28;20199;-55
2022/09/21 11:12:43;;;;;;;2.47;1.30;;;;;;;22.11;35.79;99330.53;5113082;28;20282;-56
2022/09/21 11:15:18;;;;;;;2.03;1.10;;;;;;;22.27;36.17;99336.25;5112655;28;20198;-55
2022/09/21 11:17:51;;;;;;;2.15;1.10;;;;;;;22.45;35.72;99328.69;5112740;28;20190;-56
2022/09/21 11:20:24;;;;;;;1.23;1.17;;;;;;;22.46;35.38;99338.25;5113164;28;20564;-54
2022/09/21 11:22:59;;;;;;;1.17;1.05;;;;;;;22.46;34.35;99347.03;5112542;28;20225;-56
2022/09/21 11:25:35;;;;;;;1.33;0.95;;;;;;;22.35;34.32;99335.63;5112433;28;20589;-52
2022/09/21 11:28:12;;;;;;;0.98;0.98;;;;;;;22.27;34.36;99333.63;5112809;28;20725;-52
2022/09/21 11:30:54;;;;;;;0.77;0.77;;;;;;;22.17;34.22;99327.38;5112095;28;20194;-52
2022/09/21 11:33:34;;;;;;;3.78;1.13;;;;;;;22.20;35.01;99332.44;5110097;28;20624;-52
2022/09/21 11:36:08;;;;;;;1.92;1.13;;;;;;;22.17;35.41;99323.91;5109732;28;20199;-52
2022/09/21 11:38:45;;;;;;;2.65;1.17;;;;;;;22.17;35.61;99329.19;5112270;28;20198;-52
2022/09/21 11:41:32;;;;;;;1.60;1.10;;;;;;;22.21;35.39;99318.25;5112863;28;20224;-52
2022/09/21 11:44:19;;;;;;;2.22;1.20;;;;;;;22.18;35.22;99315.84;5112482;28;20215;-53
2022/09/21 11:46:55;;;;;;;1.77;0.90;;;;;;;22.19;34.93;99319.34;5112542;28;20195;-52
2022/09/21 11:49:40;;;;;;;3.85;1.08;;;;;;;22.26;35.26;99316.06;5112011;28;20194;-53
2022/09/21 11:52:22;;;;;;;0.90;0.90;;;;;;;22.20;34.48;99316.56;5110920;28;20204;-52
2022/09/21 11:55:15;;;;;;;1.83;1.02;;;;;;;22.22;35.04;99314.66;5111210;28;20191;-53
2022/09/21 11:57:47;;;;;;;0.90;0.90;;;;;;;22.19;34.81;99314.06;5110088;28;20198;-56